Terminal Aerodrome Forecast
Issued by NWS

Home | Current Version | Previous Version | Text Only | Print | Product List | Glossary On
Versions: 1 2 3 4 5 6 7 8 9 10 11 12 13 14 15 16 17 18 19 20 21 22 23 24 25 26 27 28 29
000
FTUS43 KDLH 220800 AAA
TAFHYR
TAF AMD
KHYR 220800Z 2208/2306 14007KT 2SM -SNRA BR BKN008 OVC012
      TEMPO 2208/2210 3/4SM -SN BR SCT005 OVC013
     FM221200 14006KT 1 1/2SM -DZSN BR OVC005
     FM221800 13007KT 3SM -DZ BR OVC008
     FM222300 10004KT 2SM BR OVC007=

USA.gov is the U.S. government's official web portal to all federal, state and local government web resources and services.